Ana Sayfa
METAR-TAF:

METAR-TAF

Havaalanları :

Loreto, Meksika

Enlem: 26-01N, Boylam: 111-21W, yükseklik: 15 m

Güncel hava durumu gözlemi

Rapor saat 01:45 UTC de 6 saat ve 49 dakika önce yapıldı.
Sakin rüzgar
Sıcaklık 22°C
Nem 83%
Basınç 1018 hPa
Görüş mesafesi: 16.1 km
1500 ft yükseklikte az bulutlu

METAR: MMLT 070145Z 00000KT 10SM FEW015 22/19 A3005 RMK 8/500

Saat: 01:34 (08:34 UTC)

Tahmin

Rapor saat 04:47 UTC de 3 saat ve 47 dakika önce yapıldı.
Ayın 07'si saat 06 UTC'den ayın 08'si saat 06 UTC'ye kadar geçerli Tahmin
Rüzgar kuzeydan kt
Görüş mesafesi: 10 km
Açık gökyüzü
Ayın 07'si saat 1800 UTC'den
Rüzgar kuzey/kuzeydoğudan 10 kt
Görüş mesafesi: 10 km
Açık gökyüzü
Ayın 08'si saat 0300 UTC'den
Rüzgar kuzey/kuzeydoğudan 5 kt
Görüş mesafesi: 9.7 km
Açık gökyüzü
Toz Pusu

TAF: MMLT 070447Z 0706/0806 00000KT P6SM SKC FM071800 03010KT P6SM SKC FM080300 03005KT 6SM HZ SKC

4.000'den fazla havaalanı için hava durumu gözlemleri ve tahminleri (METAR ve TAF raporları).

Kullanılabilir istasyonlar harita üzerinde sarı ve kırmızı noktalarla gösterilir.

İstasyonun adını görmek için fareyi noktanın üzerinde gezdirin.

Sonrasında hava gözlem ve tahminlerini görmek için tıklayın.

Haritayı değiştirmek için: yaklaştırmak için siyah artı işaretli yeşil düğmeye ve uzaklaştırmak için de eksi işaretli düğmeye hızla tıklayın; bitişik haritalar için yeşil okları kullanın.


METAR-TAF: